Riqueza, Brazil
Current Conditions -  °F | °C
As of 8:00 PM on Monday 22 Dec 2014 (Local Time) from SBCH Reporting Station
Broken Clouds Broken Clouds  
Wind Chill: 70°   Ceiling: 4500
Heat Index: 70°   Visibility: 6mi
Dew Point: 59°   Wind: 12mph
Humidity: 68%   Direction: 190°S
Pressure: 29.97"   Gusts: 23mph
Location:  27.07°S, 53.32°W
Report Text: SBCH 222200Z 19010G20KT 9999 BKN045 21/15 Q1015
Loading
Personal Weather Stations






























Interactive Weather Map New forecast layout! Learn more

10-Day Weather Forecast

Advertisements
Track Severe Weather on mobile